createdAt,value
2022-09-21T00:01:30.753Z,9.19
2022-09-21T00:04:00.440Z,9.11
2022-09-21T00:06:34.058Z,9.13
2022-09-21T00:09:03.900Z,9.11
2022-09-21T00:11:34.210Z,9.09
2022-09-21T00:14:04.638Z,9.01
2022-09-21T00:16:32.945Z,9.19
2022-09-21T00:19:01.124Z,9.00
2022-09-21T00:21:29.921Z,9.14
2022-09-21T00:23:59.314Z,9.18
2022-09-21T00:26:28.474Z,9.19
2022-09-21T00:29:00.235Z,9.22
2022-09-21T00:31:29.853Z,9.13
2022-09-21T00:34:00.078Z,8.96
2022-09-21T00:36:29.099Z,8.93
2022-09-21T00:38:58.763Z,8.96
2022-09-21T00:41:27.245Z,9.06
2022-09-21T00:44:25.833Z,9.08
2022-09-21T00:46:56.971Z,9.10
2022-09-21T00:49:26.340Z,9.16
2022-09-21T00:51:55.113Z,9.27
2022-09-21T00:54:26.777Z,9.28
2022-09-21T00:56:56.494Z,9.23
2022-09-21T00:59:29.979Z,9.31
2022-09-21T01:01:59.731Z,9.24
2022-09-21T01:04:28.620Z,9.26
2022-09-21T01:06:57.486Z,9.34
2022-09-21T01:09:25.695Z,9.39
2022-09-21T01:12:09.014Z,9.34
2022-09-21T01:14:58.977Z,9.35
2022-09-21T01:17:37.557Z,9.43
2022-09-21T01:20:35.326Z,9.45
2022-09-21T01:23:17.220Z,9.45
2022-09-21T01:26:01.413Z,9.42
2022-09-21T01:28:37.979Z,9.35
2022-09-21T01:31:13.910Z,9.30
2022-09-21T01:33:48.687Z,9.15
2022-09-21T01:36:20.365Z,9.07
2022-09-21T01:38:51.374Z,9.00
2022-09-21T01:41:22.394Z,9.02
2022-09-21T01:43:55.862Z,8.93
2022-09-21T01:46:30.142Z,9.08
2022-09-21T01:49:04.930Z,9.02
2022-09-21T01:51:34.855Z,8.96
2022-09-21T01:54:09.467Z,8.90
2022-09-21T01:56:41.732Z,8.95
2022-09-21T01:59:15.305Z,8.95
2022-09-21T02:01:47.786Z,8.92
2022-09-21T02:04:15.690Z,8.91
2022-09-21T02:06:48.288Z,8.88
2022-09-21T02:09:16.150Z,8.91
2022-09-21T02:11:45.212Z,8.84
2022-09-21T02:14:14.942Z,8.69
2022-09-21T02:16:50.171Z,8.74
2022-09-21T02:19:27.903Z,8.57
2022-09-21T02:22:05.049Z,8.51
2022-09-21T02:24:42.195Z,8.54
2022-09-21T02:27:19.625Z,8.64
2022-09-21T02:29:53.978Z,8.59
2022-09-21T02:32:37.363Z,8.67
2022-09-21T02:35:09.238Z,8.60
2022-09-21T02:37:41.413Z,8.69
2022-09-21T02:40:18.724Z,8.67
2022-09-21T02:42:49.573Z,8.57
2022-09-21T02:45:22.154Z,8.64
2022-09-21T02:47:56.178Z,8.72
2022-09-21T02:50:28.224Z,8.72
2022-09-21T02:52:56.982Z,8.75
2022-09-21T02:55:25.909Z,8.75
2022-09-21T02:57:56.422Z,8.50
2022-09-21T03:00:24.293Z,8.60
2022-09-21T03:02:53.353Z,8.57
2022-09-21T03:05:21.150Z,8.57
2022-09-21T03:07:48.892Z,8.56
2022-09-21T03:10:17.403Z,8.66
2022-09-21T03:12:46.054Z,8.63
2022-09-21T03:15:17.229Z,8.69
2022-09-21T03:17:44.998Z,8.67
2022-09-21T03:20:14.150Z,8.67
2022-09-21T03:22:41.870Z,8.80
2022-09-21T03:25:10.557Z,8.86
2022-09-21T03:27:38.260Z,8.75
2022-09-21T03:30:07.111Z,8.76
2022-09-21T03:32:34.706Z,8.88
2022-09-21T03:35:02.420Z,8.85
2022-09-21T03:37:31.452Z,8.79
2022-09-21T03:40:00.205Z,8.79
2022-09-21T03:42:27.925Z,8.82
2022-09-21T03:44:55.560Z,8.81
2022-09-21T03:47:23.483Z,8.83
2022-09-21T03:49:51.172Z,8.83
2022-09-21T03:52:18.909Z,8.79
2022-09-21T03:54:47.947Z,8.74
2022-09-21T03:57:15.673Z,8.79
2022-09-21T03:59:43.564Z,8.77
2022-09-21T04:02:11.294Z,8.78
2022-09-21T04:04:38.949Z,8.74
2022-09-21T04:07:06.612Z,8.67
2022-09-21T04:09:34.328Z,8.67
2022-09-21T04:12:03.631Z,8.69
2022-09-21T04:14:31.467Z,8.75
2022-09-21T04:16:59.059Z,8.75
2022-09-21T04:19:26.748Z,8.85
2022-09-21T04:21:55.983Z,8.79
2022-09-21T04:24:24.623Z,8.73
2022-09-21T04:26:52.493Z,8.86
2022-09-21T04:29:21.544Z,8.82
2022-09-21T04:31:49.205Z,8.79
2022-09-21T04:34:16.791Z,8.75
2022-09-21T04:36:44.436Z,8.65
2022-09-21T04:39:12.238Z,8.74
2022-09-21T04:41:39.925Z,8.78
2022-09-21T04:44:07.956Z,8.69
2022-09-21T04:46:37.305Z,8.67
2022-09-21T04:49:05.292Z,8.58
2022-09-21T04:51:33.183Z,8.59
2022-09-21T04:54:01.260Z,8.69
2022-09-21T04:56:29.108Z,8.61
2022-09-21T04:58:57.350Z,8.63
2022-09-21T05:01:25.223Z,8.73
2022-09-21T05:03:54.372Z,8.70
2022-09-21T05:06:22.071Z,8.72
2022-09-21T05:09:07.778Z,8.76
2022-09-21T05:11:35.738Z,8.73
2022-09-21T05:14:03.812Z,8.77
2022-09-21T05:16:31.551Z,8.76
2022-09-21T05:19:00.746Z,8.76
2022-09-21T05:21:28.682Z,8.76
2022-09-21T05:23:57.392Z,8.79
2022-09-21T05:26:25.306Z,8.89
2022-09-21T05:28:53.748Z,8.94
2022-09-21T05:31:42.319Z,8.91
2022-09-21T05:34:29.473Z,8.99
2022-09-21T05:37:04.524Z,8.98
2022-09-21T05:39:32.834Z,9.01
2022-09-21T05:42:01.184Z,9.10
2022-09-21T05:44:29.601Z,9.12
2022-09-21T05:47:03.080Z,9.20
2022-09-21T05:49:46.313Z,9.23
2022-09-21T05:52:22.177Z,9.27
2022-09-21T05:55:03.841Z,9.33
2022-09-21T05:57:45.408Z,9.39
2022-09-21T06:00:17.390Z,9.47
2022-09-21T06:03:04.104Z,9.59
2022-09-21T06:05:33.177Z,9.64
2022-09-21T06:08:01.014Z,9.67
2022-09-21T06:10:33.514Z,9.69
2022-09-21T06:13:01.483Z,9.76
2022-09-21T06:15:29.363Z,9.69
2022-09-21T06:17:57.000Z,9.76
2022-09-21T06:20:25.147Z,9.89
2022-09-21T06:22:54.160Z,9.92
2022-09-21T06:25:22.095Z,10.11
2022-09-21T06:27:49.829Z,10.21
2022-09-21T06:30:17.728Z,10.30
2022-09-21T06:32:45.506Z,10.32
2022-09-21T06:35:13.278Z,10.52
2022-09-21T06:37:41.978Z,10.59
2022-09-21T06:40:11.734Z,10.54
2022-09-21T06:42:39.722Z,10.56
2022-09-21T06:45:08.831Z,10.61
2022-09-21T06:47:36.509Z,10.60
2022-09-21T06:50:04.449Z,10.67
2022-09-21T06:52:33.217Z,10.80
2022-09-21T06:55:00.936Z,10.86
2022-09-21T06:57:30.145Z,10.87
2022-09-21T06:59:58.115Z,10.88
2022-09-21T07:02:25.845Z,10.99
2022-09-21T07:04:53.662Z,11.03
2022-09-21T07:07:21.471Z,11.18
2022-09-21T07:12:38.141Z,11.43
2022-09-21T07:15:07.548Z,11.49
2022-09-21T07:17:36.441Z,11.50
2022-09-21T07:20:06.345Z,11.56
2022-09-21T07:22:34.229Z,11.66
2022-09-21T07:25:01.988Z,11.66
2022-09-21T07:27:31.350Z,11.76
2022-09-21T07:30:00.351Z,11.85
2022-09-21T07:32:28.013Z,11.95
2022-09-21T07:34:57.061Z,11.97
2022-09-21T07:37:25.159Z,12.10
2022-09-21T07:39:53.539Z,12.08
2022-09-21T07:42:22.753Z,12.10
2022-09-21T07:44:51.781Z,12.18
2022-09-21T07:47:27.170Z,12.18
2022-09-21T07:49:55.602Z,12.16
2022-09-21T07:52:23.300Z,12.27
2022-09-21T07:54:51.025Z,12.21
2022-09-21T07:57:36.453Z,12.33
2022-09-21T08:00:05.183Z,12.46
2022-09-21T08:02:34.427Z,12.52
2022-09-21T08:05:02.275Z,12.68
2022-09-21T08:07:30.143Z,12.70
2022-09-21T08:09:58.534Z,12.89
2022-09-21T08:12:26.276Z,12.92
2022-09-21T08:14:54.035Z,13.04
2022-09-21T08:17:21.805Z,13.32
2022-09-21T08:19:50.964Z,13.36
2022-09-21T08:22:18.890Z,13.45
2022-09-21T08:24:48.168Z,13.51
2022-09-21T08:27:16.347Z,13.61
2022-09-21T08:29:44.157Z,13.68
2022-09-21T08:32:27.509Z,13.72
2022-09-21T08:35:01.090Z,13.49
2022-09-21T08:37:29.431Z,13.46
2022-09-21T08:39:57.075Z,13.58
2022-09-21T08:42:45.482Z,13.55
2022-09-21T08:45:19.261Z,13.63
2022-09-21T08:47:50.471Z,13.74
2022-09-21T08:50:32.057Z,13.84
2022-09-21T08:53:04.453Z,14.08
2022-09-21T08:55:32.507Z,13.92
2022-09-21T08:58:01.172Z,13.91
2022-09-21T09:00:35.607Z,14.01
2022-09-21T09:03:24.780Z,14.22
2022-09-21T09:06:00.582Z,14.32
2022-09-21T09:08:59.484Z,14.36
2022-09-21T09:11:45.271Z,14.30
2022-09-21T09:14:41.554Z,14.45
2022-09-21T09:17:28.231Z,14.40
2022-09-21T09:20:02.120Z,14.42
2022-09-21T09:22:35.365Z,14.48
2022-09-21T09:25:07.094Z,14.51
2022-09-21T09:27:38.897Z,14.54
2022-09-21T09:30:16.656Z,14.59
2022-09-21T09:32:56.647Z,14.63
2022-09-21T09:35:28.814Z,14.71
2022-09-21T09:38:01.604Z,14.64
2022-09-21T09:40:49.673Z,14.67
2022-09-21T09:43:31.963Z,14.58
2022-09-21T09:46:12.743Z,14.59
2022-09-21T09:48:56.315Z,14.51
2022-09-21T09:51:24.132Z,14.49
2022-09-21T09:53:56.258Z,14.34
2022-09-21T09:56:24.104Z,14.34
2022-09-21T09:58:55.615Z,14.41
2022-09-21T10:01:42.734Z,14.46
2022-09-21T10:04:12.677Z,14.50
2022-09-21T10:06:45.856Z,14.60
2022-09-21T10:09:26.315Z,14.73
2022-09-21T10:11:56.141Z,14.78
2022-09-21T10:14:26.768Z,14.86
2022-09-21T10:16:56.910Z,14.90
2022-09-21T10:19:26.847Z,14.70
2022-09-21T10:21:58.578Z,14.89
2022-09-21T10:24:30.768Z,15.05
2022-09-21T10:27:06.375Z,15.04
2022-09-21T10:29:42.020Z,15.01
2022-09-21T10:32:22.418Z,14.93
2022-09-21T10:35:20.262Z,14.83
2022-09-21T10:37:53.710Z,15.09
2022-09-21T10:40:37.875Z,15.26
2022-09-21T10:43:06.001Z,15.47
2022-09-21T10:45:37.137Z,15.38
2022-09-21T10:48:11.178Z,15.61
2022-09-21T10:50:41.356Z,15.80
2022-09-21T10:53:20.416Z,15.76
2022-09-21T10:56:14.600Z,15.94
2022-09-21T10:59:13.766Z,16.12
2022-09-21T11:01:46.669Z,16.12
2022-09-21T11:04:19.292Z,16.23
2022-09-21T11:06:50.969Z,16.52
2022-09-21T11:09:23.486Z,16.63
2022-09-21T11:11:58.127Z,16.77
2022-09-21T11:14:38.843Z,16.91
2022-09-21T11:17:14.581Z,16.70
2022-09-21T11:19:49.362Z,16.52
2022-09-21T11:22:28.868Z,16.45
2022-09-21T11:25:07.258Z,16.42
2022-09-21T11:27:40.554Z,-145.20
2022-09-21T11:30:12.826Z,-145.20
2022-09-21T11:33:03.829Z,-145.20
2022-09-21T11:35:42.082Z,17.12
2022-09-21T11:38:14.372Z,16.91
2022-09-21T11:41:08.628Z,17.09
2022-09-21T11:43:51.619Z,17.21
2022-09-21T11:46:26.305Z,16.99
2022-09-21T11:49:08.402Z,16.71
2022-09-21T11:51:48.219Z,16.42
2022-09-21T11:54:37.995Z,16.52
2022-09-21T11:57:16.927Z,16.47
2022-09-21T11:59:58.303Z,16.30
2022-09-21T12:02:52.752Z,16.26
2022-09-21T12:05:27.798Z,16.31
2022-09-21T12:08:27.560Z,16.35
2022-09-21T12:11:03.583Z,16.50
2022-09-21T12:13:37.131Z,16.42
2022-09-21T12:16:19.670Z,16.36
2022-09-21T12:18:54.062Z,16.35
2022-09-21T12:21:25.670Z,16.32
2022-09-21T12:23:56.166Z,16.22
2022-09-21T12:26:27.202Z,16.20
2022-09-21T12:29:00.823Z,16.08
2022-09-21T12:31:34.342Z,15.89
2022-09-21T12:34:07.017Z,15.71
2022-09-21T12:36:41.130Z,15.68
2022-09-21T12:39:20.481Z,15.66
2022-09-21T12:41:55.574Z,15.77
2022-09-21T12:44:28.591Z,15.89
2022-09-21T12:47:09.329Z,16.06
2022-09-21T12:49:42.117Z,16.28
2022-09-21T12:52:11.350Z,16.36
2022-09-21T12:54:46.848Z,16.22
2022-09-21T12:57:49.213Z,16.22
2022-09-21T13:00:22.202Z,16.33
2022-09-21T13:02:58.630Z,16.35
2022-09-21T13:05:39.228Z,16.32
2022-09-21T13:08:13.480Z,16.45
2022-09-21T13:10:47.262Z,16.53
2022-09-21T13:13:25.002Z,16.59
2022-09-21T13:15:53.615Z,16.53
2022-09-21T13:18:27.179Z,16.45
2022-09-21T13:20:55.583Z,16.49
2022-09-21T13:23:29.210Z,16.40
2022-09-21T13:26:03.600Z,16.42
2022-09-21T13:29:25.631Z,16.38
2022-09-21T13:31:58.002Z,16.23
2022-09-21T13:34:30.044Z,16.29
2022-09-21T13:37:29.339Z,16.32
2022-09-21T13:40:40.228Z,16.35
2022-09-21T13:43:45.581Z,16.38
2022-09-21T13:46:49.301Z,16.46
2022-09-21T13:49:33.708Z,16.54
2022-09-21T13:52:07.338Z,16.60
2022-09-21T13:54:40.404Z,16.57
2022-09-21T13:57:19.182Z,16.55
2022-09-21T13:59:49.403Z,16.62
2022-09-21T14:02:32.839Z,16.58
2022-09-21T14:05:05.992Z,16.48
2022-09-21T14:07:36.389Z,16.35
2022-09-21T14:10:08.273Z,16.36
2022-09-21T14:12:44.405Z,16.36
2022-09-21T14:15:33.108Z,16.30
2022-09-21T14:18:39.669Z,16.30
2022-09-21T14:21:19.269Z,16.14
2022-09-21T14:24:24.108Z,16.19
2022-09-21T14:26:56.881Z,16.22
2022-09-21T14:29:30.127Z,16.23
2022-09-21T14:32:00.708Z,16.28
2022-09-21T14:34:42.736Z,16.25
2022-09-21T14:37:23.525Z,16.25
2022-09-21T14:39:54.442Z,16.19
2022-09-21T14:42:29.279Z,16.24
2022-09-21T14:45:00.335Z,16.25
2022-09-21T14:47:56.006Z,16.22
2022-09-21T14:50:33.311Z,16.30
2022-09-21T14:53:23.178Z,16.32
2022-09-21T14:56:03.510Z,16.26
2022-09-21T14:58:45.164Z,16.31
2022-09-21T15:01:38.664Z,16.23
2022-09-21T15:04:34.876Z,16.20
2022-09-21T15:07:34.811Z,16.14
2022-09-21T15:10:42.683Z,16.14
2022-09-21T15:13:22.632Z,16.09
2022-09-21T15:16:07.248Z,16.09
2022-09-21T15:18:41.692Z,15.98
2022-09-21T15:21:21.971Z,16.07
2022-09-21T15:23:51.479Z,16.03
2022-09-21T15:26:23.867Z,15.98
2022-09-21T15:29:11.522Z,15.96
2022-09-21T15:31:42.277Z,15.97
2022-09-21T15:34:11.836Z,15.99
2022-09-21T15:36:41.649Z,16.06
2022-09-21T15:39:22.980Z,15.96
2022-09-21T15:42:01.183Z,15.96
2022-09-21T15:44:34.530Z,15.89
2022-09-21T15:47:03.247Z,15.92
2022-09-21T15:49:31.479Z,15.91
2022-09-21T15:52:06.085Z,15.90
2022-09-21T15:54:36.363Z,15.88
2022-09-21T15:57:25.352Z,15.80
2022-09-21T15:59:54.625Z,15.83
2022-09-21T16:02:25.226Z,15.85
2022-09-21T16:04:53.548Z,15.87
2022-09-21T16:07:31.718Z,15.84
2022-09-21T16:09:59.820Z,15.79
2022-09-21T16:12:43.445Z,15.75
2022-09-21T16:15:25.040Z,15.75
2022-09-21T16:18:02.905Z,15.72
2022-09-21T16:20:43.892Z,15.73
2022-09-21T16:23:24.280Z,15.68
2022-09-21T16:25:57.082Z,15.67
2022-09-21T16:28:35.112Z,15.63
2022-09-21T16:31:24.526Z,15.58
2022-09-21T16:34:08.060Z,15.53
2022-09-21T16:36:42.946Z,15.49
2022-09-21T16:39:15.511Z,15.41
2022-09-21T16:41:52.916Z,15.42
2022-09-21T16:44:23.185Z,15.43
2022-09-21T16:47:00.757Z,15.34
2022-09-21T16:49:36.588Z,15.33
2022-09-21T16:52:07.658Z,15.36
2022-09-21T16:54:37.388Z,15.31
2022-09-21T16:57:07.147Z,15.33
2022-09-21T16:59:36.601Z,15.25
2022-09-21T17:02:06.045Z,15.17
2022-09-21T17:04:36.128Z,15.14
2022-09-21T17:07:06.050Z,14.95
2022-09-21T17:09:35.499Z,14.92
2022-09-21T17:12:04.476Z,14.90
2022-09-21T17:14:35.142Z,14.82
2022-09-21T17:17:08.383Z,14.81
2022-09-21T17:19:36.923Z,14.82
2022-09-21T17:22:06.885Z,14.70
2022-09-21T17:24:50.185Z,14.63
2022-09-21T17:27:20.980Z,14.59
2022-09-21T17:29:49.599Z,14.36
2022-09-21T17:32:21.182Z,14.30
2022-09-21T17:34:53.285Z,14.32
2022-09-21T17:37:21.809Z,14.21
2022-09-21T17:39:49.871Z,14.18
2022-09-21T17:42:21.123Z,14.10
2022-09-21T17:45:03.204Z,14.09
2022-09-21T17:47:33.973Z,14.13
2022-09-21T17:50:16.051Z,13.94
2022-09-21T17:53:02.624Z,13.95
2022-09-21T17:55:31.013Z,13.84
2022-09-21T17:58:17.243Z,13.89
2022-09-21T18:00:52.840Z,13.91
2022-09-21T18:03:24.873Z,13.87
2022-09-21T18:05:59.414Z,13.71
2022-09-21T18:08:28.192Z,13.76
2022-09-21T18:11:09.245Z,13.75
2022-09-21T18:13:48.096Z,13.74
2022-09-21T18:16:27.419Z,13.72
2022-09-21T18:19:16.161Z,13.60
2022-09-21T18:21:50.629Z,13.53
2022-09-21T18:24:22.508Z,13.33
2022-09-21T18:26:52.560Z,13.20
2022-09-21T18:29:40.309Z,13.16
2022-09-21T18:32:32.764Z,13.12
2022-09-21T18:35:15.334Z,13.28
2022-09-21T18:37:59.448Z,13.29
2022-09-21T18:40:37.205Z,13.34
2022-09-21T18:43:22.772Z,13.12
2022-09-21T18:45:58.462Z,13.15
2022-09-21T18:48:48.512Z,13.11
2022-09-21T18:51:24.600Z,12.98
2022-09-21T18:53:55.933Z,13.09
2022-09-21T18:56:24.688Z,13.01
2022-09-21T18:58:53.387Z,13.02
2022-09-21T19:01:22.760Z,12.84
2022-09-21T19:03:51.471Z,12.85
2022-09-21T19:06:40.244Z,12.75
2022-09-21T19:09:20.582Z,12.63
2022-09-21T19:11:54.994Z,12.67
2022-09-21T19:14:33.454Z,12.78
2022-09-21T19:17:14.629Z,12.77
2022-09-21T19:19:55.892Z,12.82
2022-09-21T19:22:35.978Z,12.94
2022-09-21T19:25:08.540Z,13.07
2022-09-21T19:27:40.086Z,13.08
2022-09-21T19:30:15.459Z,13.01
2022-09-21T19:32:47.117Z,12.98
2022-09-21T19:35:20.398Z,12.89
2022-09-21T19:37:50.386Z,12.96
2022-09-21T19:40:20.570Z,12.92
2022-09-21T19:43:20.646Z,12.95
2022-09-21T19:46:06.358Z,12.94
2022-09-21T19:48:43.139Z,12.94
2022-09-21T19:51:18.195Z,12.77
2022-09-21T19:54:11.381Z,12.70
2022-09-21T19:57:00.966Z,12.50
2022-09-21T19:59:44.498Z,12.41
2022-09-21T20:02:14.931Z,12.38
2022-09-21T20:04:50.812Z,12.41
2022-09-21T20:07:26.763Z,12.39
2022-09-21T20:10:09.789Z,12.35
2022-09-21T20:12:44.294Z,12.28
2022-09-21T20:15:17.710Z,12.15
2022-09-21T20:17:50.906Z,12.23
2022-09-21T20:20:22.691Z,12.04
2022-09-21T20:22:51.263Z,12.10
2022-09-21T20:25:25.905Z,12.23
2022-09-21T20:27:56.247Z,12.23
2022-09-21T20:30:26.132Z,12.14
2022-09-21T20:32:57.923Z,12.18
2022-09-21T20:35:27.665Z,12.14
2022-09-21T20:38:01.295Z,12.07
2022-09-21T20:40:32.146Z,11.88
2022-09-21T20:43:01.983Z,11.78
2022-09-21T20:45:30.623Z,11.85
2022-09-21T20:48:12.984Z,11.79
2022-09-21T20:50:41.742Z,11.74
2022-09-21T20:53:10.074Z,11.90
2022-09-21T20:55:39.896Z,12.06
2022-09-21T20:58:07.772Z,11.96
2022-09-21T21:00:35.625Z,11.96
2022-09-21T21:03:03.630Z,11.75
2022-09-21T21:05:31.429Z,11.58
2022-09-21T21:07:59.156Z,11.69
2022-09-21T21:10:26.834Z,11.74
2022-09-21T21:12:58.478Z,11.71
2022-09-21T21:15:26.241Z,11.78
2022-09-21T21:17:53.957Z,11.65
2022-09-21T21:20:22.259Z,11.66
2022-09-21T21:22:51.577Z,11.66
2022-09-21T21:25:19.476Z,11.79
2022-09-21T21:27:47.318Z,11.71
2022-09-21T21:30:16.635Z,11.81
2022-09-21T21:32:44.480Z,11.89
2022-09-21T21:35:12.217Z,11.80
2022-09-21T21:37:40.412Z,11.90
2022-09-21T21:40:10.098Z,11.91
2022-09-21T21:42:37.733Z,11.90
2022-09-21T21:45:06.102Z,11.86
2022-09-21T21:47:40.260Z,11.94
2022-09-21T21:50:09.308Z,11.88
2022-09-21T21:52:37.019Z,12.00
2022-09-21T21:55:05.030Z,11.97
2022-09-21T21:57:33.680Z,12.07
2022-09-21T22:00:01.441Z,12.12
2022-09-21T22:02:30.263Z,12.17
2022-09-21T22:04:59.323Z,12.11
2022-09-21T22:07:27.036Z,12.03
2022-09-21T22:09:55.567Z,11.97
2022-09-21T22:12:23.342Z,11.84
2022-09-21T22:14:51.232Z,11.70
2022-09-21T22:17:19.248Z,11.82
2022-09-21T22:19:46.876Z,11.81
2022-09-21T22:22:15.869Z,11.79
2022-09-21T22:24:43.567Z,11.91
2022-09-21T22:27:11.410Z,12.05
2022-09-21T22:29:40.619Z,12.06
2022-09-21T22:32:08.193Z,11.96
2022-09-21T22:34:35.841Z,12.04
2022-09-21T22:37:03.472Z,11.96
2022-09-21T22:39:32.560Z,11.97
2022-09-21T22:42:00.191Z,11.84
2022-09-21T22:44:27.879Z,11.72
2022-09-21T22:46:55.495Z,11.69
2022-09-21T22:49:23.159Z,11.64
2022-09-21T22:51:50.800Z,11.67
2022-09-21T22:54:18.469Z,11.70
2022-09-21T22:56:47.487Z,11.59
2022-09-21T22:59:15.098Z,11.53
2022-09-21T23:01:42.720Z,11.56
2022-09-21T23:04:12.859Z,11.59
2022-09-21T23:06:42.226Z,11.62
2022-09-21T23:09:13.617Z,11.63
2022-09-21T23:11:43.531Z,11.73
2022-09-21T23:14:12.976Z,11.61
2022-09-21T23:16:40.647Z,11.64
2022-09-21T23:19:15.514Z,11.72
2022-09-21T23:21:44.490Z,11.65
2022-09-21T23:24:12.888Z,11.63
2022-09-21T23:26:40.550Z,11.68
2022-09-21T23:29:13.533Z,11.67
2022-09-21T23:31:44.993Z,11.57
2022-09-21T23:34:13.907Z,11.66
2022-09-21T23:36:42.798Z,11.59
2022-09-21T23:39:12.547Z,11.61
2022-09-21T23:41:40.730Z,11.58
2022-09-21T23:44:08.770Z,11.54
2022-09-21T23:46:39.537Z,11.42
2022-09-21T23:49:07.666Z,11.35
2022-09-21T23:51:35.602Z,11.38
2022-09-21T23:54:04.180Z,11.43
2022-09-21T23:56:31.944Z,11.45
2022-09-21T23:59:00.257Z,11.52
